sensor_id;sensor_type;location;lat;lon;timestamp;pressure;altitude;pressure_sealevel;temperature;humidity
75089;BME280;63673;49.928;8.150;2023-08-20T00:00:57;994.88;;;21.82;100
75089;BME280;63673;49.928;8.150;2023-08-20T00:01:59;994.87;;;21.82;100
75089;BME280;63673;49.928;8.150;2023-08-20T00:03:02;994.82;;;21.82;100
75089;BME280;63673;49.928;8.150;2023-08-20T00:04:02;994.81;;;21.82;100
75089;BME280;63673;49.928;8.150;2023-08-20T00:05:04;994.83;;;21.82;100
75089;BME280;63673;49.928;8.150;2023-08-20T00:06:06;994.86;;;21.82;100
75089;BME280;63673;49.928;8.150;2023-08-20T00:07:08;994.84;;;21.81;100
75089;BME280;63673;49.928;8.150;2023-08-20T00:08:09;994.85;;;21.81;100
75089;BME280;63673;49.928;8.150;2023-08-20T00:09:11;994.85;;;21.81;100
75089;BME280;63673;49.928;8.150;2023-08-20T00:10:13;994.83;;;21.81;100
75089;BME280;63673;49.928;8.150;2023-08-20T00:11:14;994.87;;;21.81;100
75089;BME280;63673;49.928;8.150;2023-08-20T00:12:16;994.85;;;21.8;100
75089;BME280;63673;49.928;8.150;2023-08-20T00:13:18;994.86;;;21.8;100
75089;BME280;63673;49.928;8.150;2023-08-20T00:14:20;994.82;;;21.8;100
75089;BME280;63673;49.928;8.150;2023-08-20T00:15:21;994.86;;;21.8;100
75089;BME280;63673;49.928;8.150;2023-08-20T00:16:23;994.84;;;21.79;100
75089;BME280;63673;49.928;8.150;2023-08-20T00:17:25;994.86;;;21.8;100
75089;BME280;63673;49.928;8.150;2023-08-20T00:18:27;994.91;;;21.8;100
75089;BME280;63673;49.928;8.150;2023-08-20T00:19:28;994.83;;;21.8;100
75089;BME280;63673;49.928;8.150;2023-08-20T00:20:30;994.89;;;21.81;100
75089;BME280;63673;49.928;8.150;2023-08-20T00:21:32;994.9;;;21.8;100
75089;BME280;63673;49.928;8.150;2023-08-20T00:22:33;994.88;;;21.82;100
75089;BME280;63673;49.928;8.150;2023-08-20T00:23:35;994.92;;;21.82;100
75089;BME280;63673;49.928;8.150;2023-08-20T00:24:37;994.91;;;21.82;100
75089;BME280;63673;49.928;8.150;2023-08-20T00:25:39;994.82;;;21.82;100
75089;BME280;63673;49.928;8.150;2023-08-20T00:26:41;994.86;;;21.83;100
75089;BME280;63673;49.928;8.150;2023-08-20T00:27:42;994.9;;;21.83;100
75089;BME280;63673;49.928;8.150;2023-08-20T00:28:44;994.86;;;21.82;100
75089;BME280;63673;49.928;8.150;2023-08-20T00:29:46;994.86;;;21.82;100
75089;BME280;63673;49.928;8.150;2023-08-20T00:30:47;994.89;;;21.82;100
75089;BME280;63673;49.928;8.150;2023-08-20T00:31:49;994.89;;;21.82;100
75089;BME280;63673;49.928;8.150;2023-08-20T00:32:51;994.88;;;21.82;100
75089;BME280;63673;49.928;8.150;2023-08-20T00:33:53;994.88;;;21.81;100
75089;BME280;63673;49.928;8.150;2023-08-20T00:34:54;994.88;;;21.81;100
75089;BME280;63673;49.928;8.150;2023-08-20T00:35:56;994.89;;;21.8;100
75089;BME280;63673;49.928;8.150;2023-08-20T00:36:58;994.85;;;21.8;100
75089;BME280;63673;49.928;8.150;2023-08-20T00:37:59;994.9;;;21.8;100
75089;BME280;63673;49.928;8.150;2023-08-20T00:39:01;994.85;;;21.8;100
75089;BME280;63673;49.928;8.150;2023-08-20T00:40:03;994.91;;;21.79;100
75089;BME280;63673;49.928;8.150;2023-08-20T00:41:05;994.92;;;21.79;100
75089;BME280;63673;49.928;8.150;2023-08-20T00:42:07;994.89;;;21.79;100
75089;BME280;63673;49.928;8.150;2023-08-20T00:43:08;994.94;;;21.8;100
75089;BME280;63673;49.928;8.150;2023-08-20T00:44:10;994.93;;;21.8;100
75089;BME280;63673;49.928;8.150;2023-08-20T00:45:12;994.96;;;21.79;100
75089;BME280;63673;49.928;8.150;2023-08-20T00:46:13;994.98;;;21.8;100
75089;BME280;63673;49.928;8.150;2023-08-20T00:47:16;994.97;;;21.8;100
75089;BME280;63673;49.928;8.150;2023-08-20T00:48:17;994.97;;;21.79;100
75089;BME280;63673;49.928;8.150;2023-08-20T00:49:19;994.94;;;21.78;100
75089;BME280;63673;49.928;8.150;2023-08-20T00:50:21;994.97;;;21.77;100
75089;BME280;63673;49.928;8.150;2023-08-20T00:51:22;994.93;;;21.76;100
75089;BME280;63673;49.928;8.150;2023-08-20T00:52:24;994.94;;;21.74;100
75089;BME280;63673;49.928;8.150;2023-08-20T00:53:25;994.91;;;21.71;100
75089;BME280;63673;49.928;8.150;2023-08-20T00:54:27;994.93;;;21.69;100
75089;BME280;63673;49.928;8.150;2023-08-20T00:55:29;994.91;;;21.67;100
75089;BME280;63673;49.928;8.150;2023-08-20T00:56:31;994.89;;;21.64;100
75089;BME280;63673;49.928;8.150;2023-08-20T00:57:32;994.98;;;21.62;100
75089;BME280;63673;49.928;8.150;2023-08-20T00:58:34;994.95;;;21.6;100
75089;BME280;63673;49.928;8.150;2023-08-20T00:59:36;994.93;;;21.57;100
75089;BME280;63673;49.928;8.150;2023-08-20T01:00:38;994.91;;;21.55;100
75089;BME280;63673;49.928;8.150;2023-08-20T01:01:39;994.94;;;21.52;100
75089;BME280;63673;49.928;8.150;2023-08-20T01:02:41;994.85;;;21.5;100
75089;BME280;63673;49.928;8.150;2023-08-20T01:03:43;994.86;;;21.47;100
75089;BME280;63673;49.928;8.150;2023-08-20T01:04:45;994.88;;;21.45;100
75089;BME280;63673;49.928;8.150;2023-08-20T01:05:49;994.85;;;21.42;100
75089;BME280;63673;49.928;8.150;2023-08-20T01:06:51;994.84;;;21.39;100
75089;BME280;63673;49.928;8.150;2023-08-20T01:07:54;994.86;;;21.36;100
75089;BME280;63673;49.928;8.150;2023-08-20T01:08:53;994.83;;;21.34;100
75089;BME280;63673;49.928;8.150;2023-08-20T01:09:56;994.85;;;21.32;100
75089;BME280;63673;49.928;8.150;2023-08-20T01:10:56;994.82;;;21.3;100
75089;BME280;63673;49.928;8.150;2023-08-20T01:11:57;994.85;;;21.27;100
75089;BME280;63673;49.928;8.150;2023-08-20T01:12:58;994.8;;;21.25;100
75089;BME280;63673;49.928;8.150;2023-08-20T01:14:00;994.8;;;21.22;100
75089;BME280;63673;49.928;8.150;2023-08-20T01:15:02;994.79;;;21.2;100
75089;BME280;63673;49.928;8.150;2023-08-20T01:16:04;994.71;;;21.19;100
75089;BME280;63673;49.928;8.150;2023-08-20T01:17:05;994.75;;;21.16;100
75089;BME280;63673;49.928;8.150;2023-08-20T01:18:07;994.65;;;21.14;100
75089;BME280;63673;49.928;8.150;2023-08-20T01:19:10;994.65;;;21.12;100
75089;BME280;63673;49.928;8.150;2023-08-20T01:20:11;994.64;;;21.11;100
75089;BME280;63673;49.928;8.150;2023-08-20T01:21:17;994.62;;;21.1;100
75089;BME280;63673;49.928;8.150;2023-08-20T01:22:21;994.64;;;21.08;100
75089;BME280;63673;49.928;8.150;2023-08-20T01:24:22;994.65;;;21.04;100
75089;BME280;63673;49.928;8.150;2023-08-20T01:24:23;994.63;;;21.07;100
75089;BME280;63673;49.928;8.150;2023-08-20T01:25:28;994.65;;;21.03;100
75089;BME280;63673;49.928;8.150;2023-08-20T01:26:23;994.68;;;21.01;100
75089;BME280;63673;49.928;8.150;2023-08-20T01:27:26;994.67;;;20.99;100
75089;BME280;63673;49.928;8.150;2023-08-20T01:28:25;994.69;;;20.96;100
75089;BME280;63673;49.928;8.150;2023-08-20T01:29:26;994.7;;;20.95;100
75089;BME280;63673;49.928;8.150;2023-08-20T01:30:28;994.72;;;20.93;100
75089;BME280;63673;49.928;8.150;2023-08-20T01:31:30;994.72;;;20.91;100
75089;BME280;63673;49.928;8.150;2023-08-20T01:32:31;994.71;;;20.88;100
75089;BME280;63673;49.928;8.150;2023-08-20T01:33:33;994.72;;;20.86;100
75089;BME280;63673;49.928;8.150;2023-08-20T01:34:35;994.75;;;20.84;100
75089;BME280;63673;49.928;8.150;2023-08-20T01:35:36;994.82;;;20.81;100
75089;BME280;63673;49.928;8.150;2023-08-20T01:36:38;994.78;;;20.79;100
75089;BME280;63673;49.928;8.150;2023-08-20T01:37:40;994.8;;;20.77;100
75089;BME280;63673;49.928;8.150;2023-08-20T01:38:42;994.83;;;20.75;100
75089;BME280;63673;49.928;8.150;2023-08-20T01:39:43;994.86;;;20.73;100
75089;BME280;63673;49.928;8.150;2023-08-20T01:40:45;994.87;;;20.71;100
75089;BME280;63673;49.928;8.150;2023-08-20T01:41:47;994.86;;;20.69;100
75089;BME280;63673;49.928;8.150;2023-08-20T01:42:49;994.87;;;20.67;100
75089;BME280;63673;49.928;8.150;2023-08-20T01:43:50;994.88;;;20.65;100
75089;BME280;63673;49.928;8.150;2023-08-20T01:44:52;994.95;;;20.63;100
75089;BME280;63673;49.928;8.150;2023-08-20T01:45:54;994.93;;;20.61;100
75089;BME280;63673;49.928;8.150;2023-08-20T01:46:56;994.93;;;20.58;100
75089;BME280;63673;49.928;8.150;2023-08-20T01:47:57;994.92;;;20.55;100
75089;BME280;63673;49.928;8.150;2023-08-20T01:48:59;994.98;;;20.53;100
75089;BME280;63673;49.928;8.150;2023-08-20T01:50:01;994.94;;;20.5;100
75089;BME280;63673;49.928;8.150;2023-08-20T01:51:02;994.96;;;20.47;100
75089;BME280;63673;49.928;8.150;2023-08-20T01:52:04;994.99;;;20.47;100
75089;BME280;63673;49.928;8.150;2023-08-20T01:53:06;994.95;;;20.44;100
75089;BME280;63673;49.928;8.150;2023-08-20T01:54:08;994.98;;;20.42;100
75089;BME280;63673;49.928;8.150;2023-08-20T01:55:09;994.99;;;20.41;100
75089;BME280;63673;49.928;8.150;2023-08-20T01:56:11;995.02;;;20.39;100
75089;BME280;63673;49.928;8.150;2023-08-20T01:57:13;995.05;;;20.37;100
75089;BME280;63673;49.928;8.150;2023-08-20T01:58:15;995.03;;;20.35;100
75089;BME280;63673;49.928;8.150;2023-08-20T01:59:16;995.06;;;20.35;100
75089;BME280;63673;49.928;8.150;2023-08-20T02:00:18;995.08;;;20.34;100
75089;BME280;63673;49.928;8.150;2023-08-20T02:01:20;995.08;;;20.33;100
75089;BME280;63673;49.928;8.150;2023-08-20T02:02:22;995.15;;;20.32;100
75089;BME280;63673;49.928;8.150;2023-08-20T02:03:23;995.15;;;20.31;100
75089;BME280;63673;49.928;8.150;2023-08-20T02:04:25;995.16;;;20.32;100
75089;BME280;63673;49.928;8.150;2023-08-20T02:05:27;995.19;;;20.32;100
75089;BME280;63673;49.928;8.150;2023-08-20T02:06:28;995.21;;;20.32;100
75089;BME280;63673;49.928;8.150;2023-08-20T02:07:30;995.2;;;20.32;100
75089;BME280;63673;49.928;8.150;2023-08-20T02:08:32;995.21;;;20.33;100
75089;BME280;63673;49.928;8.150;2023-08-20T02:09:34;995.2;;;20.33;100
75089;BME280;63673;49.928;8.150;2023-08-20T02:10:35;995.23;;;20.34;100
75089;BME280;63673;49.928;8.150;2023-08-20T02:11:37;995.22;;;20.34;100
75089;BME280;63673;49.928;8.150;2023-08-20T02:12:39;995.15;;;20.35;100
75089;BME280;63673;49.928;8.150;2023-08-20T02:13:41;995.17;;;20.36;100
75089;BME280;63673;49.928;8.150;2023-08-20T02:14:42;995.13;;;20.36;100
75089;BME280;63673;49.928;8.150;2023-08-20T02:15:44;995.13;;;20.37;100
75089;BME280;63673;49.928;8.150;2023-08-20T02:16:46;995.14;;;20.38;100
75089;BME280;63673;49.928;8.150;2023-08-20T02:17:48;995.12;;;20.38;100
75089;BME280;63673;49.928;8.150;2023-08-20T02:18:49;995.12;;;20.38;100
75089;BME280;63673;49.928;8.150;2023-08-20T02:19:51;995.07;;;20.38;100
75089;BME280;63673;49.928;8.150;2023-08-20T02:20:53;995.14;;;20.39;100
75089;BME280;63673;49.928;8.150;2023-08-20T02:21:54;995.1;;;20.38;100
75089;BME280;63673;49.928;8.150;2023-08-20T02:22:56;995.09;;;20.38;100
75089;BME280;63673;49.928;8.150;2023-08-20T02:23:58;995.09;;;20.39;100
75089;BME280;63673;49.928;8.150;2023-08-20T02:25:00;995.07;;;20.39;100
75089;BME280;63673;49.928;8.150;2023-08-20T02:26:01;995.11;;;20.39;100
75089;BME280;63673;49.928;8.150;2023-08-20T02:27:03;995.08;;;20.38;100
75089;BME280;63673;49.928;8.150;2023-08-20T02:28:05;995.04;;;20.38;100
75089;BME280;63673;49.928;8.150;2023-08-20T02:29:07;995.09;;;20.39;100
75089;BME280;63673;49.928;8.150;2023-08-20T02:30:09;995.03;;;20.39;100
75089;BME280;63673;49.928;8.150;2023-08-20T02:31:10;995.07;;;20.38;100
75089;BME280;63673;49.928;8.150;2023-08-20T02:32:12;995;;;20.39;100
75089;BME280;63673;49.928;8.150;2023-08-20T02:33:14;995.09;;;20.39;100
75089;BME280;63673;49.928;8.150;2023-08-20T02:34:15;995.06;;;20.38;100
75089;BME280;63673;49.928;8.150;2023-08-20T02:35:17;995.01;;;20.38;100
75089;BME280;63673;49.928;8.150;2023-08-20T02:36:19;995;;;20.37;100
75089;BME280;63673;49.928;8.150;2023-08-20T02:37:20;995;;;20.37;100
75089;BME280;63673;49.928;8.150;2023-08-20T02:38:22;995.02;;;20.36;100
75089;BME280;63673;49.928;8.150;2023-08-20T02:39:24;995.02;;;20.36;100
75089;BME280;63673;49.928;8.150;2023-08-20T02:40:26;995.02;;;20.36;100
75089;BME280;63673;49.928;8.150;2023-08-20T02:41:27;995.04;;;20.35;100
75089;BME280;63673;49.928;8.150;2023-08-20T02:42:29;995.04;;;20.35;100
75089;BME280;63673;49.928;8.150;2023-08-20T02:43:31;995.03;;;20.36;100
75089;BME280;63673;49.928;8.150;2023-08-20T02:44:33;995.01;;;20.36;100
75089;BME280;63673;49.928;8.150;2023-08-20T02:45:39;995.07;;;20.36;100
75089;BME280;63673;49.928;8.150;2023-08-20T02:46:36;995.06;;;20.35;100
75089;BME280;63673;49.928;8.150;2023-08-20T02:47:38;995.06;;;20.35;100
75089;BME280;63673;49.928;8.150;2023-08-20T02:48:40;995.06;;;20.35;100
75089;BME280;63673;49.928;8.150;2023-08-20T02:49:41;995.05;;;20.35;100
75089;BME280;63673;49.928;8.150;2023-08-20T02:50:43;995.01;;;20.35;100
75089;BME280;63673;49.928;8.150;2023-08-20T02:51:45;995.03;;;20.34;100
75089;BME280;63673;49.928;8.150;2023-08-20T02:52:46;995.08;;;20.32;100
75089;BME280;63673;49.928;8.150;2023-08-20T02:53:48;995.01;;;20.31;100
75089;BME280;63673;49.928;8.150;2023-08-20T02:54:50;994.99;;;20.29;100
75089;BME280;63673;49.928;8.150;2023-08-20T02:55:52;994.96;;;20.26;100
75089;BME280;63673;49.928;8.150;2023-08-20T02:56:53;994.92;;;20.23;100
75089;BME280;63673;49.928;8.150;2023-08-20T02:57:55;994.89;;;20.2;100
75089;BME280;63673;49.928;8.150;2023-08-20T02:58:57;994.85;;;20.17;100
75089;BME280;63673;49.928;8.150;2023-08-20T02:59:59;994.85;;;20.15;100
75089;BME280;63673;49.928;8.150;2023-08-20T03:01:00;994.84;;;20.12;100
75089;BME280;63673;49.928;8.150;2023-08-20T03:02:02;994.89;;;20.11;100
75089;BME280;63673;49.928;8.150;2023-08-20T03:03:04;994.92;;;20.08;100
75089;BME280;63673;49.928;8.150;2023-08-20T03:04:05;994.91;;;20.06;100
75089;BME280;63673;49.928;8.150;2023-08-20T03:05:07;994.93;;;20.04;100
75089;BME280;63673;49.928;8.150;2023-08-20T03:06:09;994.96;;;20.02;100
75089;BME280;63673;49.928;8.150;2023-08-20T03:07:11;994.96;;;20;100
75089;BME280;63673;49.928;8.150;2023-08-20T03:08:12;994.91;;;19.97;100
75089;BME280;63673;49.928;8.150;2023-08-20T03:09:14;994.93;;;19.94;100
75089;BME280;63673;49.928;8.150;2023-08-20T03:10:16;994.93;;;19.92;100
75089;BME280;63673;49.928;8.150;2023-08-20T03:11:18;994.93;;;19.88;100
75089;BME280;63673;49.928;8.150;2023-08-20T03:12:19;994.92;;;19.86;100
75089;BME280;63673;49.928;8.150;2023-08-20T03:13:21;994.9;;;19.84;100
75089;BME280;63673;49.928;8.150;2023-08-20T03:14:23;994.92;;;19.81;100
75089;BME280;63673;49.928;8.150;2023-08-20T03:15:25;994.9;;;19.79;100
75089;BME280;63673;49.928;8.150;2023-08-20T03:16:26;994.86;;;19.77;100
75089;BME280;63673;49.928;8.150;2023-08-20T03:17:28;994.9;;;19.75;100
75089;BME280;63673;49.928;8.150;2023-08-20T03:18:30;994.85;;;19.74;100
75089;BME280;63673;49.928;8.150;2023-08-20T03:19:33;994.85;;;19.73;100
75089;BME280;63673;49.928;8.150;2023-08-20T03:20:33;994.84;;;19.72;100
75089;BME280;63673;49.928;8.150;2023-08-20T03:21:35;994.81;;;19.72;100
75089;BME280;63673;49.928;8.150;2023-08-20T03:22:37;994.83;;;19.71;100
75089;BME280;63673;49.928;8.150;2023-08-20T03:23:38;994.81;;;19.71;100
75089;BME280;63673;49.928;8.150;2023-08-20T03:24:40;994.85;;;19.7;100
75089;BME280;63673;49.928;8.150;2023-08-20T03:25:42;994.86;;;19.7;100
75089;BME280;63673;49.928;8.150;2023-08-20T03:26:44;994.87;;;19.69;100
75089;BME280;63673;49.928;8.150;2023-08-20T03:27:45;994.88;;;19.69;100
75089;BME280;63673;49.928;8.150;2023-08-20T03:28:47;994.9;;;19.68;100
75089;BME280;63673;49.928;8.150;2023-08-20T03:29:49;994.96;;;19.67;100
75089;BME280;63673;49.928;8.150;2023-08-20T03:30:51;994.94;;;19.66;100
75089;BME280;63673;49.928;8.150;2023-08-20T03:31:52;994.93;;;19.65;100
75089;BME280;63673;49.928;8.150;2023-08-20T03:32:54;994.96;;;19.64;100
75089;BME280;63673;49.928;8.150;2023-08-20T03:33:56;994.94;;;19.64;100
75089;BME280;63673;49.928;8.150;2023-08-20T03:34:57;994.95;;;19.63;100
75089;BME280;63673;49.928;8.150;2023-08-20T03:35:59;994.96;;;19.62;100
75089;BME280;63673;49.928;8.150;2023-08-20T03:37:01;994.95;;;19.61;100
75089;BME280;63673;49.928;8.150;2023-08-20T03:38:03;994.91;;;19.61;100
75089;BME280;63673;49.928;8.150;2023-08-20T03:39:04;994.9;;;19.6;100
75089;BME280;63673;49.928;8.150;2023-08-20T03:40:06;994.92;;;19.58;100
75089;BME280;63673;49.928;8.150;2023-08-20T03:41:08;994.92;;;19.58;100
75089;BME280;63673;49.928;8.150;2023-08-20T03:42:10;994.95;;;19.58;100
75089;BME280;63673;49.928;8.150;2023-08-20T03:43:11;994.95;;;19.57;100
75089;BME280;63673;49.928;8.150;2023-08-20T03:44:13;994.95;;;19.58;100
75089;BME280;63673;49.928;8.150;2023-08-20T03:45:15;995.02;;;19.57;100
75089;BME280;63673;49.928;8.150;2023-08-20T03:46:17;994.94;;;19.58;100
75089;BME280;63673;49.928;8.150;2023-08-20T03:47:18;994.98;;;19.57;100
75089;BME280;63673;49.928;8.150;2023-08-20T03:48:20;994.95;;;19.58;100
75089;BME280;63673;49.928;8.150;2023-08-20T03:49:22;994.97;;;19.57;100
75089;BME280;63673;49.928;8.150;2023-08-20T03:50:24;994.96;;;19.58;100
75089;BME280;63673;49.928;8.150;2023-08-20T03:51:25;995;;;19.58;100
75089;BME280;63673;49.928;8.150;2023-08-20T03:52:27;995.02;;;19.6;100
75089;BME280;63673;49.928;8.150;2023-08-20T03:53:29;995.05;;;19.59;100
75089;BME280;63673;49.928;8.150;2023-08-20T03:54:30;995.07;;;19.6;100
75089;BME280;63673;49.928;8.150;2023-08-20T03:55:32;995.08;;;19.6;100
75089;BME280;63673;49.928;8.150;2023-08-20T03:56:34;995.08;;;19.6;100
75089;BME280;63673;49.928;8.150;2023-08-20T03:57:36;995.12;;;19.59;100
75089;BME280;63673;49.928;8.150;2023-08-20T03:58:38;995.11;;;19.59;100
75089;BME280;63673;49.928;8.150;2023-08-20T03:59:39;995.11;;;19.59;100
75089;BME280;63673;49.928;8.150;2023-08-20T04:00:41;995.12;;;19.58;100
75089;BME280;63673;49.928;8.150;2023-08-20T04:01:43;995.08;;;19.58;100
75089;BME280;63673;49.928;8.150;2023-08-20T04:02:44;995.12;;;19.57;100
75089;BME280;63673;49.928;8.150;2023-08-20T04:03:46;995.09;;;19.56;100
75089;BME280;63673;49.928;8.150;2023-08-20T04:04:48;995.12;;;19.56;100
75089;BME280;63673;49.928;8.150;2023-08-20T04:05:50;995.14;;;19.55;100
75089;BME280;63673;49.928;8.150;2023-08-20T04:06:51;995.14;;;19.55;100
75089;BME280;63673;49.928;8.150;2023-08-20T04:07:53;995.14;;;19.54;100
75089;BME280;63673;49.928;8.150;2023-08-20T04:08:55;995.1;;;19.53;100
75089;BME280;63673;49.928;8.150;2023-08-20T04:09:56;995.16;;;19.52;100
75089;BME280;63673;49.928;8.150;2023-08-20T04:10:58;995.12;;;19.51;100
75089;BME280;63673;49.928;8.150;2023-08-20T04:12:00;995.13;;;19.51;100
75089;BME280;63673;49.928;8.150;2023-08-20T04:13:02;995.13;;;19.51;100
75089;BME280;63673;49.928;8.150;2023-08-20T04:14:03;995.19;;;19.51;100
75089;BME280;63673;49.928;8.150;2023-08-20T04:15:05;995.19;;;19.51;100
75089;BME280;63673;49.928;8.150;2023-08-20T04:16:07;995.2;;;19.51;100
75089;BME280;63673;49.928;8.150;2023-08-20T04:17:09;995.22;;;19.51;100
75089;BME280;63673;49.928;8.150;2023-08-20T04:18:10;995.27;;;19.52;100
75089;BME280;63673;49.928;8.150;2023-08-20T04:19:12;995.26;;;19.52;100
75089;BME280;63673;49.928;8.150;2023-08-20T04:20:14;995.28;;;19.52;100
75089;BME280;63673;49.928;8.150;2023-08-20T04:21:15;995.3;;;19.53;100
75089;BME280;63673;49.928;8.150;2023-08-20T04:22:17;995.28;;;19.53;100
75089;BME280;63673;49.928;8.150;2023-08-20T04:23:19;995.26;;;19.54;100
75089;BME280;63673;49.928;8.150;2023-08-20T04:24:21;995.33;;;19.54;100
75089;BME280;63673;49.928;8.150;2023-08-20T04:25:22;995.31;;;19.55;100
75089;BME280;63673;49.928;8.150;2023-08-20T04:26:24;995.34;;;19.55;100
75089;BME280;63673;49.928;8.150;2023-08-20T04:27:26;995.29;;;19.56;100
75089;BME280;63673;49.928;8.150;2023-08-20T04:28:28;995.29;;;19.57;100
75089;BME280;63673;49.928;8.150;2023-08-20T04:29:29;995.33;;;19.57;100
75089;BME280;63673;49.928;8.150;2023-08-20T04:30:31;995.29;;;19.57;100
75089;BME280;63673;49.928;8.150;2023-08-20T04:31:33;995.33;;;19.58;100
75089;BME280;63673;49.928;8.150;2023-08-20T04:32:35;995.31;;;19.58;100
75089;BME280;63673;49.928;8.150;2023-08-20T04:33:36;995.33;;;19.58;100
75089;BME280;63673;49.928;8.150;2023-08-20T04:34:38;995.34;;;19.58;100
75089;BME280;63673;49.928;8.150;2023-08-20T04:35:40;995.34;;;19.59;100
75089;BME280;63673;49.928;8.150;2023-08-20T04:36:41;995.35;;;19.6;100
75089;BME280;63673;49.928;8.150;2023-08-20T04:37:43;995.31;;;19.6;100
75089;BME280;63673;49.928;8.150;2023-08-20T04:38:45;995.3;;;19.61;100
75089;BME280;63673;49.928;8.150;2023-08-20T04:39:47;995.32;;;19.61;100
75089;BME280;63673;49.928;8.150;2023-08-20T04:40:48;995.33;;;19.61;100
75089;BME280;63673;49.928;8.150;2023-08-20T04:41:50;995.35;;;19.61;100
75089;BME280;63673;49.928;8.150;2023-08-20T04:42:52;995.35;;;19.62;100
75089;BME280;63673;49.928;8.150;2023-08-20T04:43:54;995.33;;;19.63;100
75089;BME280;63673;49.928;8.150;2023-08-20T04:44:55;995.35;;;19.63;100
75089;BME280;63673;49.928;8.150;2023-08-20T04:45:57;995.4;;;19.64;100
75089;BME280;63673;49.928;8.150;2023-08-20T04:46:59;995.42;;;19.65;100
75089;BME280;63673;49.928;8.150;2023-08-20T04:48:01;995.44;;;19.65;100
75089;BME280;63673;49.928;8.150;2023-08-20T04:49:02;995.43;;;19.66;100
75089;BME280;63673;49.928;8.150;2023-08-20T04:50:04;995.4;;;19.67;100
75089;BME280;63673;49.928;8.150;2023-08-20T04:51:07;995.39;;;19.68;100
75089;BME280;63673;49.928;8.150;2023-08-20T04:52:07;995.38;;;19.69;100
75089;BME280;63673;49.928;8.150;2023-08-20T04:53:09;995.35;;;19.69;100
75089;BME280;63673;49.928;8.150;2023-08-20T04:54:11;995.36;;;19.7;100
75089;BME280;63673;49.928;8.150;2023-08-20T04:55:13;995.42;;;19.71;100
75089;BME280;63673;49.928;8.150;2023-08-20T04:56:14;995.42;;;19.71;100
75089;BME280;63673;49.928;8.150;2023-08-20T04:57:16;995.41;;;19.73;100
75089;BME280;63673;49.928;8.150;2023-08-20T04:58:18;995.47;;;19.74;100
75089;BME280;63673;49.928;8.150;2023-08-20T04:59:20;995.47;;;19.75;100
75089;BME280;63673;49.928;8.150;2023-08-20T05:00:22;995.49;;;19.76;100
75089;BME280;63673;49.928;8.150;2023-08-20T05:01:23;995.54;;;19.78;100
75089;BME280;63673;49.928;8.150;2023-08-20T05:02:25;995.51;;;19.8;100
75089;BME280;63673;49.928;8.150;2023-08-20T05:03:26;995.58;;;19.81;100
75089;BME280;63673;49.928;8.150;2023-08-20T05:04:28;995.53;;;19.82;100
75089;BME280;63673;49.928;8.150;2023-08-20T05:05:30;995.54;;;19.84;100
75089;BME280;63673;49.928;8.150;2023-08-20T05:06:32;995.55;;;19.85;100
75089;BME280;63673;49.928;8.150;2023-08-20T05:07:33;995.58;;;19.87;100
75089;BME280;63673;49.928;8.150;2023-08-20T05:08:35;995.55;;;19.88;100
75089;BME280;63673;49.928;8.150;2023-08-20T05:09:37;995.53;;;19.9;100
75089;BME280;63673;49.928;8.150;2023-08-20T05:10:39;995.53;;;19.91;100
75089;BME280;63673;49.928;8.150;2023-08-20T05:11:40;995.51;;;19.93;100
75089;BME280;63673;49.928;8.150;2023-08-20T05:12:42;995.57;;;19.95;100
75089;BME280;63673;49.928;8.150;2023-08-20T05:13:45;995.54;;;19.97;100
75089;BME280;63673;49.928;8.150;2023-08-20T05:14:46;995.53;;;19.99;100
75089;BME280;63673;49.928;8.150;2023-08-20T05:15:47;995.52;;;20;100
75089;BME280;63673;49.928;8.150;2023-08-20T05:16:49;995.54;;;20.03;100
75089;BME280;63673;49.928;8.150;2023-08-20T05:17:51;995.53;;;20.04;100
75089;BME280;63673;49.928;8.150;2023-08-20T05:18:52;995.5;;;20.07;100
75089;BME280;63673;49.928;8.150;2023-08-20T05:19:54;995.49;;;20.09;100
75089;BME280;63673;49.928;8.150;2023-08-20T05:20:56;995.47;;;20.11;100
75089;BME280;63673;49.928;8.150;2023-08-20T05:21:58;995.53;;;20.12;100
75089;BME280;63673;49.928;8.150;2023-08-20T05:22:59;995.52;;;20.15;100
75089;BME280;63673;49.928;8.150;2023-08-20T05:24:01;995.52;;;20.17;100
75089;BME280;63673;49.928;8.150;2023-08-20T05:25:03;995.54;;;20.18;100
75089;BME280;63673;49.928;8.150;2023-08-20T05:26:05;995.51;;;20.2;100
75089;BME280;63673;49.928;8.150;2023-08-20T05:27:07;995.53;;;20.22;100
75089;BME280;63673;49.928;8.150;2023-08-20T05:28:08;995.54;;;20.25;100
75089;BME280;63673;49.928;8.150;2023-08-20T05:29:10;995.53;;;20.26;100
75089;BME280;63673;49.928;8.150;2023-08-20T05:30:12;995.52;;;20.29;100
75089;BME280;63673;49.928;8.150;2023-08-20T05:31:13;995.58;;;20.31;100
75089;BME280;63673;49.928;8.150;2023-08-20T05:32:15;995.58;;;20.33;100
75089;BME280;63673;49.928;8.150;2023-08-20T05:33:17;995.65;;;20.35;100
75089;BME280;63673;49.928;8.150;2023-08-20T05:34:18;995.63;;;20.38;100
75089;BME280;63673;49.928;8.150;2023-08-20T05:35:20;995.68;;;20.4;100
75089;BME280;63673;49.928;8.150;2023-08-20T05:36:22;995.68;;;20.42;100
75089;BME280;63673;49.928;8.150;2023-08-20T05:37:24;995.68;;;20.43;100
75089;BME280;63673;49.928;8.150;2023-08-20T05:38:25;995.71;;;20.45;100
75089;BME280;63673;49.928;8.150;2023-08-20T05:39:29;995.7;;;20.47;100
75089;BME280;63673;49.928;8.150;2023-08-20T05:40:29;995.74;;;20.48;100
75089;BME280;63673;49.928;8.150;2023-08-20T05:41:31;995.76;;;20.49;100
75089;BME280;63673;49.928;8.150;2023-08-20T05:42:32;995.73;;;20.51;100
75089;BME280;63673;49.928;8.150;2023-08-20T05:43:34;995.8;;;20.52;100
75089;BME280;63673;49.928;8.150;2023-08-20T05:44:36;995.79;;;20.54;100
75089;BME280;63673;49.928;8.150;2023-08-20T05:45:38;995.81;;;20.56;100
75089;BME280;63673;49.928;8.150;2023-08-20T05:46:39;995.87;;;20.57;100